Time;durP1;ratioP1;P1;durP2;ratioP2;P2;SDS_P1;SDS_P2;PMS_P1;PMS_P2;Temp;Humidity;BMP_temperature;BMP_pressure;BME280_temperature;BME280_humidity;BME280_pressure;Samples;Min_cycle;Max_cycle;Signal;HPM_P1;HPM_P2
2021/08/22 00:00:19;;;;;;;14.10;9.10;;;23.20;77.90;;;;;;5013180;28;20124;-78
2021/08/22 00:02:47;;;;;;;13.90;8.93;;;23.20;77.80;;;;;;5002480;28;20050;-78
2021/08/22 00:05:13;;;;;;;12.40;8.75;;;23.20;77.70;;;;;;5015727;28;20064;-78
2021/08/22 00:07:39;;;;;;;12.68;8.15;;;23.20;77.60;;;;;;4997996;28;20034;-78
2021/08/22 00:10:05;;;;;;;12.27;8.60;;;23.10;77.40;;;;;;5006318;28;20026;-78
2021/08/22 00:12:31;;;;;;;12.90;8.75;;;23.10;77.30;;;;;;5004317;28;20096;-78
2021/08/22 00:14:56;;;;;;;13.35;8.38;;;23.10;77.30;;;;;;5006275;28;20466;-78
2021/08/22 00:17:22;;;;;;;17.27;9.90;;;23.10;77.20;;;;;;5002813;28;20397;-78
2021/08/22 00:19:48;;;;;;;14.77;9.85;;;23.10;77.30;;;;;;5012735;28;20045;-78
2021/08/22 00:22:14;;;;;;;14.93;9.95;;;23.10;77.40;;;;;;5013995;28;20032;-78
2021/08/22 00:24:40;;;;;;;12.90;9.68;;;23.10;77.60;;;;;;5010643;28;20125;-78
2021/08/22 00:27:06;;;;;;;12.45;9.80;;;23.00;77.70;;;;;;5014755;28;20033;-78
2021/08/22 00:29:32;;;;;;;15.70;10.07;;;23.00;77.80;;;;;;5010902;28;20029;-78
2021/08/22 00:32:01;;;;;;;15.30;9.60;;;23.00;77.90;;;;;;5008192;28;20037;-77
2021/08/22 00:34:27;;;;;;;13.57;9.70;;;23.00;78.00;;;;;;5008410;28;20038;-78
2021/08/22 00:36:54;;;;;;;14.23;9.95;;;22.90;78.10;;;;;;5013235;28;20087;-78
2021/08/22 00:39:22;;;;;;;16.63;9.80;;;22.90;78.20;;;;;;5013836;28;20096;-78
2021/08/22 00:41:47;;;;;;;14.85;10.13;;;22.90;78.40;;;;;;5001713;28;20105;-78
2021/08/22 00:44:13;;;;;;;15.40;10.88;;;22.90;78.60;;;;;;5007409;28;20121;-78
2021/08/22 00:46:41;;;;;;;15.23;10.60;;;22.90;78.60;;;;;;5010381;28;20527;-78
2021/08/22 00:49:08;;;;;;;14.45;10.25;;;22.90;78.80;;;;;;5000428;28;20095;-78
2021/08/22 00:51:34;;;;;;;15.07;10.15;;;22.80;78.80;;;;;;5004376;28;20181;-76
2021/08/22 00:54:01;;;;;;;15.35;10.50;;;22.80;79.00;;;;;;5001929;28;20037;-77
2021/08/22 00:56:26;;;;;;;14.90;10.02;;;22.80;79.10;;;;;;5014074;28;20034;-77
2021/08/22 00:58:52;;;;;;;15.00;10.50;;;22.80;79.30;;;;;;5011670;28;20037;-77
2021/08/22 01:01:21;;;;;;;20.25;10.90;;;22.80;79.40;;;;;;5012051;28;20030;-78
2021/08/22 01:03:54;;;;;;;16.35;10.48;;;22.70;79.40;;;;;;5001434;28;20398;-78
2021/08/22 01:06:37;;;;;;;19.00;10.15;;;22.70;79.50;;;;;;4997354;28;20033;-77
2021/08/22 01:09:19;;;;;;;15.70;10.25;;;22.70;79.50;;;;;;4999845;28;20057;-78
2021/08/22 01:11:46;;;;;;;19.67;11.07;;;22.70;79.70;;;;;;5000767;28;20042;-78
2021/08/22 01:14:16;;;;;;;15.10;10.90;;;22.70;79.70;;;;;;5003596;28;20112;-78
2021/08/22 01:16:50;;;;;;;15.85;10.35;;;22.60;79.70;;;;;;5002941;28;20157;-77
2021/08/22 01:19:39;;;;;;;15.82;11.32;;;22.70;79.90;;;;;;5000324;28;20038;-78
2021/08/22 01:22:07;;;;;;;16.67;11.10;;;22.60;80.00;;;;;;5007857;28;20545;-78
2021/08/22 01:24:37;;;;;;;14.90;11.68;;;22.60;80.00;;;;;;5011422;28;20156;-77
2021/08/22 01:27:04;;;;;;;19.08;11.57;;;22.60;80.10;;;;;;5005345;28;20030;-78
2021/08/22 01:29:37;;;;;;;17.17;11.48;;;22.60;80.30;;;;;;4996582;28;20091;-78
2021/08/22 01:32:03;;;;;;;17.88;11.60;;;22.60;80.30;;;;;;5005785;28;20022;-78
2021/08/22 01:34:29;;;;;;;16.77;11.80;;;22.60;80.40;;;;;;5008843;28;20446;-78
2021/08/22 01:36:57;;;;;;;15.80;11.25;;;22.50;80.40;;;;;;5013632;28;20026;-78
2021/08/22 01:39:23;;;;;;;17.30;11.35;;;22.50;80.50;;;;;;5012291;28;20046;-78
2021/08/22 01:41:49;;;;;;;18.73;11.20;;;22.50;80.50;;;;;;4997776;28;20079;-78
2021/08/22 01:44:19;;;;;;;16.60;10.65;;;22.60;80.70;;;;;;5004770;28;20042;-78
2021/08/22 01:46:46;;;;;;;16.27;11.93;;;22.50;80.70;;;;;;5008438;28;20030;-77
2021/08/22 01:49:12;;;;;;;18.10;11.50;;;22.50;80.70;;;;;;5005033;28;20030;-78
2021/08/22 01:51:40;;;;;;;14.93;10.88;;;22.50;80.90;;;;;;5005668;28;20058;-78
2021/08/22 01:54:08;;;;;;;16.00;11.25;;;22.50;80.90;;;;;;4995063;28;20486;-78
2021/08/22 01:56:35;;;;;;;14.73;10.98;;;22.50;81.00;;;;;;4998711;28;20062;-78
2021/08/22 01:59:02;;;;;;;14.45;11.45;;;22.40;80.90;;;;;;5003722;28;20505;-78
2021/08/22 02:01:28;;;;;;;18.40;11.75;;;22.40;81.00;;;;;;5001408;28;20077;-78
2021/08/22 02:04:33;;;;;;;20.02;11.25;;;22.40;81.20;;;;;;5003208;28;20068;-78
2021/08/22 02:07:09;;;;;;;16.48;11.00;;;22.40;81.20;;;;;;4998281;28;20040;-78
2021/08/22 02:10:01;;;;;;;19.20;11.38;;;22.40;81.20;;;;;;5004259;28;20109;-77
2021/08/22 02:12:27;;;;;;;16.75;11.00;;;22.30;81.20;;;;;;5011719;28;20036;-78
2021/08/22 02:14:59;;;;;;;15.65;11.63;;;22.40;81.30;;;;;;5012359;28;20118;-78
2021/08/22 02:17:50;;;;;;;17.77;11.50;;;22.30;81.40;;;;;;5008666;28;20030;-78
2021/08/22 02:20:17;;;;;;;15.60;10.63;;;22.40;81.50;;;;;;5004074;28;20125;-77
2021/08/22 02:22:46;;;;;;;15.95;11.57;;;22.30;81.50;;;;;;5011138;28;20469;-77
2021/08/22 02:25:13;;;;;;;16.88;11.90;;;22.20;81.50;;;;;;5012391;28;20140;-77
2021/08/22 02:27:39;;;;;;;18.48;11.95;;;22.20;81.60;;;;;;5010947;28;20080;-77
2021/08/22 02:30:06;;;;;;;17.00;11.50;;;22.30;81.70;;;;;;5001597;28;20537;-77
2021/08/22 02:32:32;;;;;;;18.33;11.63;;;22.20;81.70;;;;;;5011484;28;20030;-77
2021/08/22 02:34:57;;;;;;;15.18;11.20;;;22.20;81.80;;;;;;4994932;28;20038;-77
2021/08/22 02:37:23;;;;;;;17.92;12.18;;;22.20;82.00;;;;;;5008738;28;20034;-78
2021/08/22 02:39:49;;;;;;;15.93;11.13;;;22.20;82.00;;;;;;5000721;28;20040;-77
2021/08/22 02:42:17;;;;;;;18.17;12.18;;;22.20;82.10;;;;;;5001156;28;20026;-78
2021/08/22 02:44:44;;;;;;;16.15;10.63;;;22.10;82.20;;;;;;5009753;28;20025;-77
2021/08/22 02:47:10;;;;;;;19.75;11.32;;;22.20;82.30;;;;;;5013842;28;20474;-77
2021/08/22 02:49:37;;;;;;;18.27;12.55;;;22.10;82.30;;;;;;5011012;28;20033;-77
2021/08/22 02:52:03;;;;;;;18.75;11.45;;;22.20;82.50;;;;;;5008455;28;20469;-77
2021/08/22 02:54:32;;;;;;;18.30;11.90;;;22.20;82.60;;;;;;5012174;28;20496;-77
2021/08/22 02:56:58;;;;;;;15.65;11.63;;;22.20;82.70;;;;;;4994342;28;20109;-77
2021/08/22 02:59:23;;;;;;;17.17;11.80;;;22.10;82.70;;;;;;5004337;28;20128;-77
2021/08/22 03:01:49;;;;;;;18.10;12.27;;;22.10;82.90;;;;;;5011264;28;20038;-77
2021/08/22 03:04:15;;;;;;;15.07;10.95;;;22.10;83.00;;;;;;5011124;28;20107;-77
2021/08/22 03:06:40;;;;;;;17.75;11.40;;;22.10;83.00;;;;;;5011305;28;20512;-77
2021/08/22 03:09:06;;;;;;;16.90;10.25;;;22.10;83.00;;;;;;5005785;28;20029;-77
2021/08/22 03:11:32;;;;;;;18.60;8.90;;;22.10;82.90;;;;;;4993263;28;20034;-77
2021/08/22 03:13:58;;;;;;;20.55;11.90;;;22.00;81.50;;;;;;5006318;28;20034;-77
2021/08/22 03:16:25;;;;;;;16.25;11.50;;;22.00;81.60;;;;;;5004515;28;20057;-77
2021/08/22 03:18:50;;;;;;;19.38;13.65;;;21.90;82.10;;;;;;5006755;28;20085;-77
2021/08/22 03:21:16;;;;;;;16.60;12.50;;;22.00;82.80;;;;;;4993790;28;20023;-77
2021/08/22 03:23:45;;;;;;;17.25;12.02;;;21.90;82.90;;;;;;5007010;28;20061;-78
2021/08/22 03:26:10;;;;;;;18.63;11.32;;;22.00;83.00;;;;;;4999045;28;20092;-77
2021/08/22 03:28:36;;;;;;;14.77;11.02;;;22.00;83.00;;;;;;5011845;28;20034;-77
2021/08/22 03:31:03;;;;;;;17.10;12.40;;;22.00;82.90;;;;;;5010076;28;20029;-77
2021/08/22 03:33:29;;;;;;;17.98;12.05;;;22.00;82.90;;;;;;5011072;28;20038;-77
2021/08/22 03:35:54;;;;;;;17.98;12.50;;;22.00;83.20;;;;;;5010118;28;20026;-77
2021/08/22 03:38:20;;;;;;;16.52;11.85;;;22.00;83.30;;;;;;5011500;28;20060;-77
2021/08/22 03:40:46;;;;;;;19.25;12.05;;;22.00;83.30;;;;;;5011347;28;20057;-77
2021/08/22 03:43:12;;;;;;;17.95;12.43;;;22.00;83.40;;;;;;5011007;28;20045;-77
2021/08/22 03:45:37;;;;;;;18.95;12.57;;;22.00;84.10;;;;;;5009536;28;20029;-77
2021/08/22 03:48:03;;;;;;;18.83;11.82;;;22.00;83.50;;;;;;5007149;28;20538;-78
2021/08/22 03:50:29;;;;;;;16.42;12.63;;;22.00;83.50;;;;;;5009096;28;20048;-78
2021/08/22 03:52:55;;;;;;;19.90;11.98;;;22.00;83.60;;;;;;5008349;28;20489;-77
2021/08/22 03:55:21;;;;;;;17.38;11.43;;;22.00;83.60;;;;;;5011188;28;20029;-77
2021/08/22 03:57:47;;;;;;;16.70;11.63;;;22.00;83.70;;;;;;4999793;28;20038;-77
2021/08/22 04:00:14;;;;;;;18.77;12.38;;;22.00;83.80;;;;;;5008337;28;20030;-78
2021/08/22 04:02:40;;;;;;;21.27;12.32;;;22.00;83.70;;;;;;5003464;28;20115;-77
2021/08/22 04:05:20;;;;;;;16.65;11.68;;;22.00;83.80;;;;;;5008790;28;20070;-77
2021/08/22 04:07:49;;;;;;;16.17;11.43;;;22.00;83.80;;;;;;5006045;28;20061;-77
2021/08/22 04:10:16;;;;;;;17.67;11.32;;;22.00;83.90;;;;;;5010547;28;20508;-77
2021/08/22 04:12:42;;;;;;;17.63;11.65;;;22.00;83.90;;;;;;5015503;28;20026;-77
2021/08/22 04:15:08;;;;;;;16.10;11.85;;;22.00;83.90;;;;;;5002594;28;20715;-77
2021/08/22 04:17:37;;;;;;;16.15;11.95;;;22.00;83.90;;;;;;5011208;28;20121;-77
2021/08/22 04:20:03;;;;;;;17.33;12.70;;;21.90;84.00;;;;;;5012507;28;20517;-77
2021/08/22 04:22:29;;;;;;;18.20;11.07;;;22.00;84.30;;;;;;5011311;28;20088;-77
2021/08/22 04:24:55;;;;;;;15.25;11.10;;;22.00;84.40;;;;;;5016052;28;20049;-77
2021/08/22 04:27:20;;;;;;;17.95;11.43;;;22.00;84.50;;;;;;5011282;28;20018;-77
2021/08/22 04:29:46;;;;;;;15.35;11.95;;;21.90;84.50;;;;;;5013342;28;20520;-77
2021/08/22 04:32:12;;;;;;;16.55;11.35;;;22.00;84.60;;;;;;5009780;28;20034;-77
2021/08/22 04:34:37;;;;;;;16.58;11.73;;;22.00;84.60;;;;;;5011548;28;20061;-77
2021/08/22 04:37:03;;;;;;;18.60;11.50;;;22.00;84.70;;;;;;5004863;28;20033;-77
2021/08/22 04:39:29;;;;;;;16.00;11.50;;;21.90;84.60;;;;;;5013530;28;20488;-77
2021/08/22 04:41:55;;;;;;;18.88;12.05;;;22.00;84.70;;;;;;5013279;28;20026;-77
2021/08/22 04:44:23;;;;;;;17.08;11.18;;;22.00;84.90;;;;;;5014701;28;20026;-77
2021/08/22 04:46:49;;;;;;;17.10;10.93;;;22.00;84.90;;;;;;5014571;28;20029;-77
2021/08/22 04:49:14;;;;;;;16.33;11.45;;;22.00;85.10;;;;;;5012514;28;20398;-77
2021/08/22 04:51:40;;;;;;;14.77;11.20;;;21.90;85.10;;;;;;5011807;28;20040;-77
2021/08/22 04:54:06;;;;;;;14.88;11.13;;;22.00;85.00;;;;;;5013986;28;20033;-77
2021/08/22 04:56:31;;;;;;;20.77;11.48;;;21.90;85.00;;;;;;5000117;28;20029;-77
2021/08/22 04:58:57;;;;;;;18.45;11.45;;;21.90;85.00;;;;;;5013337;28;20041;-77
2021/08/22 05:01:23;;;;;;;17.10;11.02;;;21.90;85.10;;;;;;5001022;28;20474;-77
2021/08/22 05:03:48;;;;;;;13.45;10.10;;;21.90;85.10;;;;;;5008239;28;20068;-77
2021/08/22 05:06:14;;;;;;;17.65;10.85;;;21.90;85.20;;;;;;5005837;28;20022;-77
2021/08/22 05:08:40;;;;;;;16.08;11.35;;;21.90;85.20;;;;;;5012154;28;20029;-77
2021/08/22 05:11:07;;;;;;;14.88;11.38;;;21.90;85.30;;;;;;5013101;28;20593;-77
2021/08/22 05:13:37;;;;;;;18.20;12.02;;;21.90;85.40;;;;;;5012572;28;20449;-77
2021/08/22 05:16:04;;;;;;;16.83;11.65;;;21.80;85.50;;;;;;5003815;28;20022;-77
2021/08/22 05:18:30;;;;;;;17.02;11.77;;;21.80;85.60;;;;;;5012482;28;20042;-77
2021/08/22 05:20:55;;;;;;;19.17;11.60;;;21.80;85.80;;;;;;5012698;28;20029;-77
2021/08/22 05:23:21;;;;;;;20.77;11.27;;;21.80;85.90;;;;;;5012515;28;20040;-77
2021/08/22 05:25:46;;;;;;;21.65;12.65;;;21.80;86.00;;;;;;5000344;28;20104;-77
2021/08/22 05:28:12;;;;;;;17.58;11.88;;;21.80;86.20;;;;;;5013768;28;20030;-77
2021/08/22 05:30:38;;;;;;;22.15;12.48;;;21.70;86.30;;;;;;5012505;28;20478;-77
2021/08/22 05:33:04;;;;;;;18.88;10.95;;;21.70;86.40;;;;;;5008091;28;20489;-77
2021/08/22 05:35:30;;;;;;;17.38;11.25;;;21.70;86.40;;;;;;5006749;28;20068;-77
2021/08/22 05:37:56;;;;;;;15.70;11.02;;;21.70;86.60;;;;;;5010329;28;20042;-77
2021/08/22 05:40:21;;;;;;;15.63;11.38;;;21.70;86.70;;;;;;5013168;28;20037;-77
2021/08/22 05:42:47;;;;;;;16.27;11.02;;;21.70;86.90;;;;;;5010997;28;20390;-77
2021/08/22 05:45:13;;;;;;;15.02;11.20;;;21.70;87.00;;;;;;5013576;28;20437;-77
2021/08/22 05:47:39;;;;;;;13.73;9.70;;;21.60;87.10;;;;;;5013653;28;20030;-77
2021/08/22 05:50:06;;;;;;;15.35;10.73;;;21.60;87.20;;;;;;5011319;28;20034;-77
2021/08/22 05:52:35;;;;;;;14.88;9.38;;;21.60;87.30;;;;;;5002553;28;20030;-80
2021/08/22 05:55:06;;;;;;;19.77;10.23;;;21.60;87.30;;;;;;5009357;28;20073;-78
2021/08/22 05:57:32;;;;;;;15.38;9.60;;;21.60;87.40;;;;;;5021171;28;20033;-77
2021/08/22 05:59:58;;;;;;;16.40;10.13;;;21.60;87.30;;;;;;5006296;28;20497;-76
2021/08/22 06:02:24;;;;;;;13.50;9.32;;;21.60;87.40;;;;;;5009591;28;20061;-77
2021/08/22 06:04:49;;;;;;;19.38;9.75;;;21.50;87.40;;;;;;5007714;28;20034;-76
2021/08/22 06:07:21;;;;;;;17.23;10.27;;;21.50;87.40;;;;;;4997548;28;20466;-76
2021/08/22 06:09:58;;;;;;;15.90;10.45;;;21.50;87.50;;;;;;4998582;28;20088;-77
2021/08/22 06:12:24;;;;;;;14.27;9.55;;;21.50;87.70;;;;;;5000611;28;20501;-77
2021/08/22 06:14:49;;;;;;;14.45;9.82;;;21.40;87.60;;;;;;4998079;28;20058;-77
2021/08/22 06:17:15;;;;;;;15.35;9.40;;;21.40;87.70;;;;;;5002427;28;20382;-77
2021/08/22 06:19:41;;;;;;;15.05;9.77;;;21.40;87.70;;;;;;5000655;28;20108;-77
2021/08/22 06:22:06;;;;;;;15.75;10.35;;;21.40;87.80;;;;;;5006602;28;20405;-78
2021/08/22 06:24:33;;;;;;;16.17;10.20;;;21.30;87.80;;;;;;5011879;28;20041;-76
2021/08/22 06:27:02;;;;;;;15.18;9.48;;;21.30;88.00;;;;;;5010990;28;20057;-77
2021/08/22 06:29:27;;;;;;;15.88;9.50;;;21.30;88.10;;;;;;5007028;28;20478;-77
2021/08/22 06:31:53;;;;;;;13.38;8.88;;;21.30;88.30;;;;;;5003831;28;20068;-77
2021/08/22 06:34:19;;;;;;;14.32;8.30;;;21.30;88.20;;;;;;5010276;28;20026;-77
2021/08/22 06:36:45;;;;;;;16.15;9.57;;;21.30;87.90;;;;;;5010941;28;20045;-77
2021/08/22 06:39:12;;;;;;;13.15;8.75;;;21.30;88.00;;;;;;5011738;28;20041;-77
2021/08/22 06:41:38;;;;;;;12.93;7.20;;;21.30;88.10;;;;;;5012155;28;20057;-77
2021/08/22 06:44:04;;;;;;;19.05;8.63;;;21.30;88.00;;;;;;5012224;28;20429;-77
2021/08/22 06:46:30;;;;;;;13.10;8.70;;;21.30;88.00;;;;;;5012633;28;20036;-77
2021/08/22 06:48:55;;;;;;;13.98;9.25;;;21.30;88.20;;;;;;5002871;28;20477;-76
2021/08/22 06:51:21;;;;;;;15.82;8.45;;;21.30;88.30;;;;;;5009760;28;20034;-75
2021/08/22 06:53:47;;;;;;;16.25;8.20;;;21.20;88.20;;;;;;5002394;28;20026;-76
2021/08/22 06:56:13;;;;;;;11.30;6.70;;;21.30;88.20;;;;;;5010852;28;20079;-77
2021/08/22 06:58:38;;;;;;;13.60;7.70;;;21.30;88.10;;;;;;5000654;28;20029;-74
2021/08/22 07:01:08;;;;;;;14.85;7.53;;;21.30;87.90;;;;;;5012517;28;20041;-74
2021/08/22 07:03:33;;;;;;;15.00;7.38;;;21.30;87.70;;;;;;5007388;28;20080;-74
2021/08/22 07:05:59;;;;;;;11.18;7.35;;;21.30;87.60;;;;;;5003995;28;20033;-75
2021/08/22 07:08:27;;;;;;;12.82;7.68;;;21.30;87.80;;;;;;5000141;28;20030;-75
2021/08/22 07:10:53;;;;;;;14.05;7.80;;;21.30;87.80;;;;;;5011763;28;20026;-74
2021/08/22 07:13:19;;;;;;;11.95;7.50;;;21.30;88.00;;;;;;5010592;28;20427;-73
2021/08/22 07:15:44;;;;;;;11.35;7.20;;;21.30;88.20;;;;;;5007222;28;20117;-74
2021/08/22 07:18:10;;;;;;;12.90;7.45;;;21.30;88.10;;;;;;5004497;28;20048;-74
2021/08/22 07:20:35;;;;;;;11.57;7.40;;;21.30;88.20;;;;;;5010384;28;20040;-74
2021/08/22 07:23:01;;;;;;;10.18;6.88;;;21.40;88.50;;;;;;5002928;28;20482;-74
2021/08/22 07:25:27;;;;;;;11.52;6.85;;;21.40;88.40;;;;;;5007661;28;20050;-74
2021/08/22 07:27:53;;;;;;;12.40;7.93;;;21.30;88.20;;;;;;5005225;28;20114;-74
2021/08/22 07:30:18;;;;;;;12.30;7.45;;;21.40;88.30;;;;;;5004086;28;20036;-74
2021/08/22 07:32:44;;;;;;;10.52;6.38;;;21.40;88.50;;;;;;5006747;28;20113;-74
2021/08/22 07:35:10;;;;;;;11.57;6.55;;;21.40;88.50;;;;;;4999964;28;20057;-74
2021/08/22 07:37:36;;;;;;;12.10;6.78;;;21.40;88.50;;;;;;4993915;28;20153;-75
2021/08/22 07:40:06;;;;;;;17.67;6.78;;;21.40;88.40;;;;;;5004012;28;20069;-74
2021/08/22 07:42:31;;;;;;;14.48;6.70;;;21.40;88.40;;;;;;5005282;28;20055;-74
2021/08/22 07:44:57;;;;;;;9.82;6.63;;;21.40;88.20;;;;;;5016136;28;20097;-75
2021/08/22 07:47:23;;;;;;;9.73;6.35;;;21.40;88.00;;;;;;5005638;28;20041;-75
2021/08/22 07:49:50;;;;;;;9.52;5.93;;;21.40;88.00;;;;;;5004189;28;20029;-75
2021/08/22 07:52:16;;;;;;;10.88;7.35;;;21.40;87.80;;;;;;5006170;28;20509;-75
2021/08/22 07:54:42;;;;;;;10.07;6.53;;;21.40;87.90;;;;;;5014904;28;20517;-75
2021/08/22 07:57:07;;;;;;;9.07;6.53;;;21.30;88.10;;;;;;5004802;28;20029;-74
2021/08/22 07:59:33;;;;;;;14.13;6.88;;;21.40;87.60;;;;;;5014298;28;20042;-75
2021/08/22 08:01:59;;;;;;;8.75;6.53;;;21.30;87.80;;;;;;5012438;28;20026;-73
2021/08/22 08:04:24;;;;;;;12.68;7.10;;;21.40;88.10;;;;;;5012016;28;20034;-73
2021/08/22 08:06:50;;;;;;;12.80;7.43;;;21.40;88.30;;;;;;5010922;28;20052;-73
2021/08/22 08:09:16;;;;;;;13.52;8.55;;;21.40;88.30;;;;;;5006141;28;20489;-73
2021/08/22 08:11:42;;;;;;;14.98;8.35;;;21.40;88.40;;;;;;5010402;28;20044;-75
2021/08/22 08:14:07;;;;;;;13.68;9.50;;;21.40;88.60;;;;;;5008487;28;20033;-78
2021/08/22 08:16:33;;;;;;;14.90;8.52;;;21.40;88.50;;;;;;5007741;28;20025;-75
2021/08/22 08:18:59;;;;;;;12.90;9.07;;;21.30;88.30;;;;;;5010388;28;20033;-74
2021/08/22 08:21:24;;;;;;;12.65;9.38;;;21.40;88.30;;;;;;5012833;28;20036;-74
2021/08/22 08:23:50;;;;;;;14.48;8.85;;;21.40;88.50;;;;;;5008585;28;20681;-77
2021/08/22 08:26:16;;;;;;;13.60;8.65;;;21.40;88.60;;;;;;5006179;28;20049;-78
2021/08/22 08:28:42;;;;;;;13.00;8.75;;;21.40;88.80;;;;;;5013350;28;20132;-77
2021/08/22 08:31:08;;;;;;;13.63;9.02;;;21.40;89.00;;;;;;5005692;28;20121;-79
2021/08/22 08:33:35;;;;;;;15.90;9.40;;;21.40;89.20;;;;;;5006644;28;20061;-81
2021/08/22 08:36:01;;;;;;;11.95;8.98;;;21.40;89.30;;;;;;5001997;28;20553;-83
2021/08/22 08:38:26;;;;;;;13.27;8.85;;;21.40;89.30;;;;;;5011201;28;20137;-86
2021/08/22 08:40:53;;;;;;;15.95;9.40;;;21.40;89.40;;;;;;5001703;28;20037;-87
2021/08/22 08:43:18;;;;;;;15.38;8.20;;;21.40;89.40;;;;;;5000897;28;20026;-87
2021/08/22 08:45:57;;;;;;;15.30;7.88;;;21.40;89.30;;;;;;5010010;28;20037;-86
2021/08/22 08:48:30;;;;;;;13.20;7.20;;;21.50;89.30;;;;;;5008234;28;20041;-87
2021/08/22 08:51:28;;;;;;;10.25;6.57;;;21.40;88.70;;;;;;5011404;28;20038;-87
2021/08/22 08:54:02;;;;;;;10.30;6.63;;;21.50;88.40;;;;;;4967589;28;20385;-85
2021/08/22 08:56:32;;;;;;;8.50;5.72;;;21.50;88.60;;;;;;5011365;28;20025;-86
2021/08/22 08:58:58;;;;;;;10.18;6.78;;;21.50;88.40;;;;;;5014850;28;20371;-86
2021/08/22 09:01:24;;;;;;;10.93;5.72;;;21.50;88.50;;;;;;5014523;28;20030;-85
2021/08/22 09:04:14;;;;;;;10.45;6.32;;;21.50;88.60;;;;;;5014288;28;20046;-87
2021/08/22 09:07:08;;;;;;;10.48;5.63;;;21.50;88.30;;;;;;5014266;28;20038;-86
2021/08/22 09:10:11;;;;;;;10.18;6.63;;;21.50;88.40;;;;;;5007144;28;20030;-86
2021/08/22 09:12:58;;;;;;;8.50;6.32;;;21.50;88.50;;;;;;5004515;28;20113;-81
2021/08/22 09:15:55;;;;;;;11.48;6.40;;;21.50;88.50;;;;;;5014229;28;20032;-79
2021/08/22 09:18:29;;;;;;;8.93;6.53;;;21.50;88.70;;;;;;5003022;28;20121;-77
2021/08/22 09:21:22;;;;;;;9.20;6.30;;;21.40;88.50;;;;;;5013997;28;20041;-77
2021/08/22 09:24:18;;;;;;;12.53;6.30;;;21.40;88.70;;;;;;5011583;28;20493;-76
2021/08/22 09:27:22;;;;;;;8.10;6.10;;;21.40;88.50;;;;;;5013225;28;20668;-77
2021/08/22 09:30:32;;;;;;;10.13;6.70;;;21.40;88.30;;;;;;5013057;28;20462;-77
2021/08/22 09:33:46;;;;;;;9.18;6.07;;;21.40;88.20;;;;;;5011764;28;20041;-82
2021/08/22 09:36:23;;;;;;;11.57;7.10;;;21.40;88.40;;;;;;5011652;28;20022;-85
2021/08/22 09:39:26;;;;;;;11.73;6.82;;;21.40;88.70;;;;;;4995483;28;20042;-80
2021/08/22 09:42:07;;;;;;;9.90;6.75;;;21.40;88.80;;;;;;5009010;28;20040;-82
2021/08/22 09:45:11;;;;;;;10.07;6.70;;;21.40;88.70;;;;;;5005744;28;20046;-79
2021/08/22 09:47:56;;;;;;;10.25;6.53;;;21.40;88.80;;;;;;4998078;28;20030;-84
2021/08/22 09:50:47;;;;;;;8.48;6.70;;;21.40;88.50;;;;;;5004245;28;20042;-86
2021/08/22 09:53:37;;;;;;;8.75;6.45;;;21.40;88.80;;;;;;5009777;28;20405;-84
2021/08/22 09:56:40;;;;;;;15.50;6.10;;;21.40;89.00;;;;;;5003559;28;20030;-83
2021/08/22 09:59:15;;;;;;;10.75;5.18;;;21.40;89.00;;;;;;5002744;28;20045;-86
2021/08/22 10:01:47;;;;;;;7.65;5.60;;;21.40;89.00;;;;;;5012696;28;20034;-82
2021/08/22 10:04:40;;;;;;;12.07;4.60;;;21.40;89.20;;;;;;5001712;28;20093;-80
2021/08/22 10:07:24;;;;;;;8.70;4.35;;;21.50;88.90;;;;;;5008168;28;20031;-81
2021/08/22 10:10:12;;;;;;;5.03;4.22;;;21.40;88.90;;;;;;5006638;28;20034;-84
2021/08/22 10:12:38;;;;;;;5.45;3.67;;;21.40;89.20;;;;;;5002436;28;20029;-79
2021/08/22 10:15:04;;;;;;;4.35;3.50;;;21.40;89.20;;;;;;5013375;28;20378;-79
2021/08/22 10:17:30;;;;;;;4.00;2.42;;;21.40;89.30;;;;;;5008667;28;20057;-82
2021/08/22 10:19:56;;;;;;;4.70;2.70;;;21.40;89.10;;;;;;5003624;28;20104;-81
2021/08/22 10:22:24;;;;;;;4.70;2.58;;;21.40;88.90;;;;;;5003264;28;20037;-82
2021/08/22 10:25:04;;;;;;;3.63;2.80;;;21.50;88.90;;;;;;5002918;28;20054;-77
2021/08/22 10:27:30;;;;;;;4.03;2.63;;;21.50;89.00;;;;;;5001515;28;20061;-80
2021/08/22 10:29:57;;;;;;;4.10;3.00;;;21.50;89.20;;;;;;5003215;28;20486;-86
2021/08/22 10:32:24;;;;;;;3.83;2.67;;;21.50;89.40;;;;;;5003293;28;20040;-87
2021/08/22 10:35:16;;;;;;;7.45;3.00;;;21.50;89.60;;;;;;5009040;28;20061;-84
2021/08/22 10:37:45;;;;;;;7.13;2.80;;;21.50;89.50;;;;;;5000371;28;20036;-82
2021/08/22 10:40:23;;;;;;;4.20;2.63;;;21.50;89.40;;;;;;4997999;28;20042;-81
2021/08/22 10:43:09;;;;;;;3.58;2.95;;;21.50;89.80;;;;;;5006944;28;20033;-83
2021/08/22 10:45:40;;;;;;;5.57;3.35;;;21.50;89.40;;;;;;5003343;28;20026;-83
2021/08/22 10:48:29;;;;;;;5.75;3.70;;;21.60;89.60;;;;;;4994476;28;20543;-83
2021/08/22 10:51:07;;;;;;;4.85;3.00;;;21.60;89.60;;;;;;4999380;28;20026;-82
2021/08/22 10:53:37;;;;;;;4.20;3.13;;;21.60;89.90;;;;;;5007500;28;20433;-80
2021/08/22 10:56:21;;;;;;;6.05;3.30;;;21.60;89.80;;;;;;4999502;28;20021;-83
2021/08/22 10:58:56;;;;;;;4.15;3.13;;;21.60;89.50;;;;;;4998465;28;20041;-82
2021/08/22 11:01:22;;;;;;;5.00;3.30;;;21.60;89.50;;;;;;4998967;28;20036;-89
2021/08/22 11:04:04;;;;;;;6.93;3.67;;;21.60;89.80;;;;;;4996786;28;20129;-81
2021/08/22 11:07:03;;;;;;;6.90;3.37;;;21.70;89.80;;;;;;5003158;28;20026;-81
2021/08/22 11:09:55;;;;;;;5.63;3.97;;;21.60;89.70;;;;;;4999377;28;20486;-82
2021/08/22 11:12:29;;;;;;;6.53;4.65;;;21.60;90.00;;;;;;4994259;28;20037;-80
2021/08/22 11:14:58;;;;;;;7.90;4.40;;;21.70;89.50;;;;;;5001216;28;20038;-81
2021/08/22 11:17:24;;;;;;;8.00;4.68;;;21.70;89.30;;;;;;5004424;28;20030;-81
2021/08/22 11:19:50;;;;;;;9.60;5.63;;;21.70;89.20;;;;;;5004854;28;20037;-80
2021/08/22 11:22:29;;;;;;;9.45;5.93;;;21.70;89.40;;;;;;4998422;28;20045;-85
2021/08/22 11:24:57;;;;;;;7.45;5.70;;;21.70;89.20;;;;;;4999792;28;20069;-82
2021/08/22 11:27:28;;;;;;;8.55;5.70;;;21.70;89.50;;;;;;5005852;28;20030;-81
2021/08/22 11:29:57;;;;;;;8.13;5.68;;;21.70;89.70;;;;;;5002774;28;20076;-82
2021/08/22 11:32:24;;;;;;;11.27;6.78;;;21.70;90.00;;;;;;4999643;28;20045;-81
2021/08/22 11:34:50;;;;;;;8.57;5.75;;;21.70;90.10;;;;;;5000773;28;20054;-82
2021/08/22 11:37:17;;;;;;;7.55;5.75;;;21.70;90.10;;;;;;4996398;28;20037;-82
2021/08/22 11:39:43;;;;;;;8.15;5.80;;;21.70;90.30;;;;;;4998239;28;20489;-79
2021/08/22 11:42:09;;;;;;;11.25;6.50;;;21.70;90.40;;;;;;4999213;28;20061;-80
2021/08/22 11:44:35;;;;;;;9.85;7.20;;;21.80;90.50;;;;;;5001762;28;20034;-80
2021/08/22 11:47:01;;;;;;;11.85;8.55;;;21.80;90.30;;;;;;5001570;28;20493;-81
2021/08/22 11:49:27;;;;;;;10.38;7.15;;;21.80;90.50;;;;;;5001143;28;20033;-80
2021/08/22 11:51:55;;;;;;;12.63;7.22;;;21.80;90.50;;;;;;5001775;28;20331;-85
2021/08/22 11:54:21;;;;;;;11.90;8.32;;;21.80;90.50;;;;;;5000362;28;20038;-88
2021/08/22 11:56:47;;;;;;;11.63;7.95;;;21.80;90.90;;;;;;4999547;28;20378;-82
2021/08/22 11:59:27;;;;;;;15.02;8.18;;;21.90;90.90;;;;;;5003481;28;20053;-85
2021/08/22 12:02:19;;;;;;;17.70;9.73;;;21.90;90.90;;;;;;5002041;28;20109;-85
2021/08/22 12:05:08;;;;;;;15.52;9.57;;;21.90;90.90;;;;;;5001332;28;20041;-91
2021/08/22 12:07:33;;;;;;;15.38;10.30;;;21.90;90.80;;;;;;5003595;28;20031;-76
2021/08/22 12:09:59;;;;;;;17.95;11.75;;;21.90;91.10;;;;;;5005863;28;20156;-78
2021/08/22 12:12:25;;;;;;;18.55;10.98;;;22.00;91.10;;;;;;5005005;28;20493;-77
2021/08/22 12:14:50;;;;;;;17.40;12.48;;;22.00;91.20;;;;;;5003969;28;20553;-78
2021/08/22 12:17:25;;;;;;;17.20;12.25;;;22.00;91.20;;;;;;4994647;28;20315;-77
2021/08/22 12:19:51;;;;;;;20.83;12.90;;;22.00;91.20;;;;;;4997300;28;20038;-78
2021/08/22 12:22:17;;;;;;;17.42;12.00;;;22.00;91.20;;;;;;5002540;28;20030;-78
2021/08/22 12:24:48;;;;;;;16.73;9.90;;;22.00;91.10;;;;;;5004555;28;20057;-78
2021/08/22 12:27:26;;;;;;;16.80;11.07;;;22.10;90.90;;;;;;5005928;28;20038;-78
2021/08/22 12:30:09;;;;;;;19.08;11.50;;;22.10;91.00;;;;;;5007057;28;20088;-78
2021/08/22 12:32:36;;;;;;;18.80;12.48;;;22.10;90.90;;;;;;5007574;28;20379;-89
2021/08/22 12:35:07;;;;;;;18.45;11.40;;;22.10;90.90;;;;;;5019790;28;20068;-84
2021/08/22 12:37:33;;;;;;;17.40;10.73;;;22.10;91.00;;;;;;5012798;28;20076;-89
2021/08/22 12:40:00;;;;;;;15.75;10.50;;;22.10;90.90;;;;;;5007900;28;20038;-83
2021/08/22 12:42:26;;;;;;;17.77;11.35;;;22.10;90.70;;;;;;5009803;28;20038;-82
2021/08/22 12:44:53;;;;;;;15.45;10.95;;;22.20;91.00;;;;;;5011286;28;20073;-82
2021/08/22 12:47:19;;;;;;;14.90;10.60;;;22.10;90.50;;;;;;5009327;28;20034;-92